Time;durP1;ratioP1;P1;durP2;ratioP2;P2;SDS_P1;SDS_P2;PMS_P1;PMS_P2;Temp;Humidity;BMP_temperature;BMP_pressure;BME280_temperature;BME280_humidity;BME280_pressure;Samples;Min_cycle;Max_cycle;Signal;HPM_P1;HPM_P2
2022/08/19 04:02:38;;;;;;;27.37;25.00;;;21.10;99.90;;;;;;4974611;28;20972;-64
2022/08/19 04:05:07;;;;;;;29.50;26.50;;;21.10;99.90;;;;;;4975882;28;20497;-62
2022/08/19 04:07:35;;;;;;;26.63;24.00;;;21.10;99.90;;;;;;4975712;28;20454;-63
2022/08/19 04:10:02;;;;;;;27.60;25.10;;;21.00;99.90;;;;;;4975787;28;20458;-63
2022/08/19 04:12:29;;;;;;;30.77;27.77;;;21.00;99.90;;;;;;4975581;28;20479;-64
2022/08/19 04:14:56;;;;;;;28.43;25.80;;;21.00;99.90;;;;;;4975336;28;20458;-63
2022/08/19 04:17:22;;;;;;;28.40;25.80;;;21.10;99.90;;;;;;4975584;28;20583;-64
2022/08/19 04:19:50;;;;;;;27.60;24.90;;;21.10;99.90;;;;;;4975782;28;20463;-63
2022/08/19 04:22:18;;;;;;;29.30;26.63;;;21.10;99.90;;;;;;4975568;28;20474;-63
2022/08/19 04:24:44;;;;;;;30.40;27.63;;;21.10;99.90;;;;;;4975634;28;20542;-63
2022/08/19 04:27:11;;;;;;;27.40;24.90;;;21.00;99.90;;;;;;4975649;28;20454;-63
2022/08/19 04:29:39;;;;;;;29.00;26.50;;;21.10;99.90;;;;;;4975588;28;20481;-64
2022/08/19 04:32:06;;;;;;;29.33;26.43;;;21.00;99.90;;;;;;4975250;28;20919;-63
2022/08/19 04:34:33;;;;;;;28.50;26.00;;;21.00;99.90;;;;;;4975117;28;20462;-64
2022/08/19 04:37:01;;;;;;;28.43;25.63;;;21.10;99.90;;;;;;4974854;28;20529;-63
2022/08/19 04:44:54;;;;;;;28.37;25.73;;;21.10;99.90;;;;;;4974765;28;20433;-63
2022/08/19 04:47:20;;;;;;;29.10;26.50;;;21.10;99.90;;;;;;4975059;28;20472;-63
2022/08/19 04:49:48;;;;;;;27.87;25.40;;;21.10;99.90;;;;;;4974706;28;20450;-63
2022/08/19 04:52:16;;;;;;;29.37;26.63;;;21.10;99.90;;;;;;4974868;28;20593;-63
2022/08/19 04:54:43;;;;;;;29.23;26.33;;;21.10;99.90;;;;;;4975013;28;20462;-63
2022/08/19 04:57:10;;;;;;;33.27;26.50;;;21.10;99.90;;;;;;4975052;28;20475;-63
2022/08/19 04:59:37;;;;;;;31.00;28.10;;;21.10;99.90;;;;;;4975164;28;20461;-64
2022/08/19 05:02:07;;;;;;;30.00;27.23;;;21.10;99.90;;;;;;4974648;28;20486;-64
2022/08/19 05:04:35;;;;;;;30.70;27.87;;;21.10;99.90;;;;;;4977163;28;20486;-63
2022/08/19 05:07:02;;;;;;;27.63;25.20;;;21.10;99.90;;;;;;4979293;28;20546;-64
2022/08/19 05:09:30;;;;;;;29.80;27.00;;;21.10;99.90;;;;;;4979090;28;20531;-63
2022/08/19 05:11:57;;;;;;;28.93;26.17;;;21.10;99.90;;;;;;4978909;28;20489;-63
2022/08/19 05:14:24;;;;;;;29.07;26.53;;;21.10;99.90;;;;;;4978911;28;20805;-63
2022/08/19 05:16:51;;;;;;;29.23;26.53;;;21.10;99.90;;;;;;4978712;28;20479;-63
2022/08/19 05:24:44;;;;;;;29.43;26.73;;;21.20;99.90;;;;;;4978601;28;20417;-63
2022/08/19 05:27:11;;;;;;;30.07;27.37;;;21.20;99.90;;;;;;4978848;28;20450;-63
2022/08/19 05:29:38;;;;;;;28.80;26.07;;;21.20;99.90;;;;;;4979238;28;20506;-63
2022/08/19 05:32:08;;;;;;;29.23;26.50;;;21.20;99.90;;;;;;4978644;28;20481;-63
2022/08/19 05:34:35;;;;;;;28.50;26.00;;;21.20;99.90;;;;;;4978606;28;20450;-63
2022/08/19 05:37:04;;;;;;;28.77;26.13;;;21.20;99.90;;;;;;4978704;28;20555;-63
2022/08/19 05:39:32;;;;;;;30.27;27.33;;;21.20;99.90;;;;;;4978642;28;20541;-63
2022/08/19 05:42:06;;;;;;;27.13;24.83;;;21.20;99.90;;;;;;4978659;28;20524;-63
2022/08/19 05:44:34;;;;;;;24.57;22.37;;;21.30;99.90;;;;;;4979054;28;20453;-65
2022/08/19 05:47:04;;;;;;;28.57;25.80;;;21.40;99.90;;;;;;4978378;28;20454;-64
2022/08/19 05:49:32;;;;;;;26.80;24.47;;;21.50;99.90;;;;;;4978305;28;20598;-63
2022/08/19 05:51:59;;;;;;;28.47;25.70;;;21.50;99.90;;;;;;4978169;28;20533;-63
2022/08/19 05:54:26;;;;;;;29.57;26.83;;;21.60;99.90;;;;;;4978821;28;20455;-63
2022/08/19 05:56:54;;;;;;;27.63;25.30;;;21.70;99.90;;;;;;4978209;28;20517;-64
2022/08/19 05:59:23;;;;;;;28.83;26.03;;;21.80;99.90;;;;;;4978102;28;20461;-64
2022/08/19 06:01:55;;;;;;;28.47;25.87;;;21.80;99.90;;;;;;4977685;28;20486;-64
2022/08/19 06:04:23;;;;;;;29.80;27.20;;;21.90;99.90;;;;;;4977795;28;20866;-64
2022/08/19 06:06:52;;;;;;;28.27;25.43;;;21.90;99.90;;;;;;4977663;28;20454;-63
2022/08/19 06:09:19;;;;;;;27.90;25.50;;;21.90;99.90;;;;;;4977970;28;20509;-63
2022/08/19 06:11:48;;;;;;;28.53;25.63;;;21.90;99.90;;;;;;4978200;28;20470;-63
2022/08/19 06:14:16;;;;;;;30.10;27.20;;;21.90;99.90;;;;;;4977601;28;20463;-63
2022/08/19 06:16:45;;;;;;;30.10;26.87;;;22.00;99.90;;;;;;4978312;28;20513;-64
2022/08/19 06:19:15;;;;;;;28.73;26.17;;;22.00;99.90;;;;;;4977843;28;20461;-63
2022/08/19 06:21:44;;;;;;;31.10;28.07;;;22.00;99.90;;;;;;4977571;28;20482;-63
2022/08/19 06:24:13;;;;;;;29.03;25.73;;;21.90;99.90;;;;;;4977643;28;20454;-63
2022/08/19 06:26:43;;;;;;;28.57;26.13;;;21.90;99.90;;;;;;4977719;28;20462;-64
2022/08/19 06:29:13;;;;;;;28.63;25.83;;;21.90;99.90;;;;;;4978734;28;20850;-64
2022/08/19 06:31:43;;;;;;;29.63;26.60;;;21.90;99.90;;;;;;4977117;28;20877;-65
2022/08/19 06:34:11;;;;;;;26.30;23.90;;;21.90;99.90;;;;;;4977444;28;20439;-64
2022/08/19 06:36:41;;;;;;;27.53;24.87;;;22.00;99.90;;;;;;4977829;28;20505;-64
2022/08/19 06:39:11;;;;;;;29.17;26.40;;;22.10;99.90;;;;;;4977536;28;20455;-64
2022/08/19 06:41:42;;;;;;;29.63;26.97;;;22.00;99.90;;;;;;4977526;28;20475;-64
2022/08/19 06:44:11;;;;;;;29.20;26.67;;;22.10;99.90;;;;;;4977385;28;20446;-64
2022/08/19 06:46:38;;;;;;;27.23;24.63;;;22.10;99.90;;;;;;4977235;28;20961;-64
2022/08/19 06:49:05;;;;;;;26.93;24.50;;;22.10;99.90;;;;;;4977404;28;20451;-64
2022/08/19 06:51:34;;;;;;;29.50;26.70;;;22.10;99.90;;;;;;4977018;28;20985;-64
2022/08/19 06:54:01;;;;;;;28.40;25.90;;;22.20;99.90;;;;;;4976955;28;20458;-64
2022/08/19 06:56:33;;;;;;;27.90;25.30;;;22.20;99.90;;;;;;4977080;28;20459;-64
2022/08/19 06:59:00;;;;;;;29.47;25.90;;;22.20;99.90;;;;;;4977113;28;20463;-65
2022/08/19 07:01:27;;;;;;;31.30;28.20;;;22.30;99.90;;;;;;4977176;28;20997;-63
2022/08/19 07:03:53;;;;;;;33.70;30.87;;;22.30;99.90;;;;;;4976719;28;20537;-64
2022/08/19 07:06:21;;;;;;;30.00;27.10;;;22.30;99.90;;;;;;4977034;28;20455;-63
2022/08/19 07:08:49;;;;;;;30.97;28.13;;;22.30;99.90;;;;;;4976694;28;20850;-64
2022/08/19 07:11:18;;;;;;;29.43;26.67;;;22.30;99.90;;;;;;4976839;28;20514;-63
2022/08/19 07:13:48;;;;;;;27.77;25.37;;;22.40;99.90;;;;;;4976832;28;20870;-64
2022/08/19 07:16:19;;;;;;;33.60;25.50;;;22.40;99.90;;;;;;4976979;28;20455;-64
2022/08/19 07:18:46;;;;;;;26.90;24.47;;;22.40;99.90;;;;;;4976888;28;20469;-64
2022/08/19 07:21:15;;;;;;;26.90;24.50;;;22.40;99.90;;;;;;4977519;28;20475;-64
2022/08/19 07:23:42;;;;;;;26.77;24.30;;;22.40;99.90;;;;;;4976902;28;20485;-64
2022/08/19 07:26:13;;;;;;;27.00;24.53;;;22.40;99.90;;;;;;4976691;28;20458;-64
2022/08/19 07:28:40;;;;;;;25.60;23.10;;;22.40;99.90;;;;;;4976595;28;20464;-64
2022/08/19 07:31:07;;;;;;;24.60;22.50;;;22.40;99.90;;;;;;4976523;28;20478;-64
2022/08/19 07:33:35;;;;;;;25.67;23.30;;;22.40;99.90;;;;;;4976513;28;20458;-64
2022/08/19 07:36:02;;;;;;;26.97;24.50;;;22.40;99.90;;;;;;4976118;28;20824;-63
2022/08/19 07:38:29;;;;;;;26.50;24.00;;;22.40;99.90;;;;;;4976439;28;20478;-63
2022/08/19 07:40:56;;;;;;;24.90;22.70;;;22.30;99.90;;;;;;4976008;28;20486;-63
2022/08/19 07:43:24;;;;;;;25.27;23.00;;;22.30;99.90;;;;;;4976482;28;20462;-63
2022/08/19 07:45:51;;;;;;;26.07;23.80;;;22.30;99.90;;;;;;4976026;28;20549;-63
2022/08/19 07:48:18;;;;;;;26.37;23.93;;;22.20;99.90;;;;;;4976145;28;20450;-63
2022/08/19 07:50:45;;;;;;;24.97;22.87;;;22.10;99.90;;;;;;4976120;28;20475;-63
2022/08/19 07:53:12;;;;;;;24.83;22.73;;;22.00;99.90;;;;;;4976412;28;20517;-63
2022/08/19 07:55:39;;;;;;;25.17;22.87;;;22.00;99.90;;;;;;4976341;28;20487;-63
2022/08/19 07:58:06;;;;;;;24.63;22.53;;;22.00;99.90;;;;;;4976132;28;20490;-64
2022/08/19 08:00:35;;;;;;;24.40;22.30;;;22.00;99.90;;;;;;4975850;28;20490;-63
2022/08/19 08:03:02;;;;;;;24.00;22.00;;;21.90;99.90;;;;;;4976108;28;20462;-63
2022/08/19 08:10:57;;;;;;;23.83;21.70;;;21.90;99.90;;;;;;4976059;28;20968;-63
2022/08/19 08:13:24;;;;;;;21.67;19.53;;;21.90;99.90;;;;;;4975730;28;20462;-63
2022/08/19 08:15:53;;;;;;;23.93;21.63;;;21.90;99.90;;;;;;4975970;28;20445;-64
2022/08/19 08:18:20;;;;;;;23.70;21.40;;;21.80;99.90;;;;;;4976016;28;20482;-64
2022/08/19 08:20:47;;;;;;;21.77;20.07;;;21.80;99.90;;;;;;4975650;28;20478;-64
2022/08/19 08:23:25;;;;;;;25.37;22.97;;;21.80;99.90;;;;;;4975634;28;20495;-64
2022/08/19 08:25:54;;;;;;;23.00;21.00;;;21.70;99.90;;;;;;4975549;28;20445;-63
2022/08/19 08:28:21;;;;;;;23.87;21.30;;;21.80;99.90;;;;;;4975477;28;20581;-63
2022/08/19 08:30:49;;;;;;;24.50;22.07;;;21.70;99.90;;;;;;4975118;28;21002;-64
2022/08/19 08:33:21;;;;;;;23.77;21.57;;;21.70;99.90;;;;;;4975652;28;20459;-63
2022/08/19 08:35:48;;;;;;;24.37;22.37;;;21.70;99.90;;;;;;4975217;28;20439;-63
2022/08/19 08:38:17;;;;;;;25.63;23.20;;;21.80;99.90;;;;;;4975012;28;20997;-64
2022/08/19 08:40:48;;;;;;;23.37;21.40;;;21.80;99.90;;;;;;4975326;28;20485;-65
2022/08/19 08:43:23;;;;;;;23.13;20.93;;;21.80;99.90;;;;;;4975670;28;20906;-64
2022/08/19 08:45:57;;;;;;;21.83;19.97;;;21.80;99.90;;;;;;4975631;28;20537;-64
2022/08/19 08:48:35;;;;;;;23.40;21.10;;;21.80;99.90;;;;;;4975038;28;20899;-64
2022/08/19 08:51:08;;;;;;;22.37;20.33;;;21.80;99.90;;;;;;4975497;28;20929;-64
2022/08/19 08:53:36;;;;;;;21.83;19.67;;;21.90;99.90;;;;;;4975176;28;20918;-65
2022/08/19 08:56:06;;;;;;;22.93;20.93;;;22.00;99.90;;;;;;4975340;28;20510;-65
2022/08/19 08:58:46;;;;;;;22.23;20.30;;;22.20;99.90;;;;;;4975503;28;20467;-64
2022/08/19 09:01:13;;;;;;;22.77;20.83;;;22.40;99.90;;;;;;4975356;28;20486;-63
2022/08/19 09:03:45;;;;;;;22.90;20.90;;;22.50;99.90;;;;;;4975219;28;20529;-63
2022/08/19 09:06:19;;;;;;;21.30;19.23;;;22.60;99.90;;;;;;4975380;28;20439;-62
2022/08/19 09:08:52;;;;;;;22.33;20.33;;;22.70;99.90;;;;;;4975166;28;20443;-63
2022/08/19 09:11:30;;;;;;;22.80;20.77;;;22.70;99.90;;;;;;4975143;28;20486;-62
2022/08/19 09:14:08;;;;;;;22.13;19.73;;;22.80;99.90;;;;;;4975131;28;20497;-63
2022/08/19 09:16:35;;;;;;;21.00;19.20;;;22.90;99.90;;;;;;4975433;28;20447;-63
2022/08/19 09:19:07;;;;;;;21.03;19.13;;;23.00;99.90;;;;;;4974543;28;20467;-63
2022/08/19 09:21:35;;;;;;;20.00;18.30;;;23.10;99.90;;;;;;4975310;28;20884;-63
2022/08/19 09:24:04;;;;;;;20.37;18.67;;;23.20;99.90;;;;;;4975532;28;20512;-63
2022/08/19 09:26:32;;;;;;;21.13;19.23;;;23.20;99.90;;;;;;4975842;28;20466;-63
2022/08/19 09:29:00;;;;;;;20.70;18.90;;;23.20;99.90;;;;;;4974752;28;20454;-62
2022/08/19 09:31:30;;;;;;;18.67;16.97;;;23.30;99.90;;;;;;4975100;28;20510;-63
2022/08/19 09:33:57;;;;;;;21.43;19.33;;;23.30;99.90;;;;;;4974836;28;20454;-63
2022/08/19 09:36:28;;;;;;;18.93;17.27;;;23.30;99.90;;;;;;4974926;28;20471;-63
2022/08/19 09:38:56;;;;;;;19.23;17.37;;;23.30;99.90;;;;;;4974460;28;20471;-63
2022/08/19 09:41:25;;;;;;;19.90;18.00;;;23.20;99.90;;;;;;4974326;28;20973;-63
2022/08/19 09:43:55;;;;;;;19.87;17.60;;;23.10;99.90;;;;;;4974706;28;20458;-62
2022/08/19 09:46:23;;;;;;;19.07;17.07;;;23.10;99.90;;;;;;4975146;28;20796;-63
2022/08/19 09:48:51;;;;;;;18.40;16.43;;;23.10;99.90;;;;;;4974671;28;20455;-63
2022/08/19 09:51:19;;;;;;;19.10;17.50;;;23.20;99.90;;;;;;4977440;28;20474;-63
2022/08/19 09:53:50;;;;;;;19.57;17.97;;;23.20;99.90;;;;;;4978054;28;20937;-62
2022/08/19 09:56:19;;;;;;;19.57;17.93;;;23.20;99.90;;;;;;4977802;28;20873;-61
2022/08/19 09:58:46;;;;;;;20.67;18.60;;;23.10;99.90;;;;;;4978040;28;20474;-62
2022/08/19 10:01:18;;;;;;;18.90;17.10;;;23.10;99.90;;;;;;4977805;28;20490;-62
2022/08/19 10:03:48;;;;;;;19.53;17.63;;;23.10;99.90;;;;;;4977972;28;20445;-62
2022/08/19 10:06:16;;;;;;;17.87;16.33;;;23.20;99.90;;;;;;4978545;28;20905;-62
2022/08/19 10:08:43;;;;;;;19.77;17.90;;;23.20;99.90;;;;;;4977651;28;20967;-62
2022/08/19 10:11:11;;;;;;;19.23;17.03;;;23.20;99.90;;;;;;4977546;28;20481;-62
2022/08/19 10:13:38;;;;;;;17.33;15.77;;;23.20;99.90;;;;;;4977834;28;20466;-62
2022/08/19 10:16:08;;;;;;;17.77;16.27;;;23.20;99.90;;;;;;4977894;28;20458;-62
2022/08/19 10:18:36;;;;;;;17.00;15.60;;;23.20;99.90;;;;;;4978049;28;20830;-63
2022/08/19 10:21:08;;;;;;;16.30;15.00;;;23.20;99.90;;;;;;4977594;28;20474;-62
2022/08/19 10:23:36;;;;;;;18.27;16.57;;;23.30;99.90;;;;;;4977543;28;20439;-62
2022/08/19 10:26:05;;;;;;;17.33;15.93;;;23.30;99.90;;;;;;4977766;28;20465;-62
2022/08/19 10:28:35;;;;;;;15.73;14.53;;;23.30;99.90;;;;;;4978211;28;20447;-62
2022/08/19 10:31:06;;;;;;;17.23;15.50;;;23.30;99.90;;;;;;4978186;28;20508;-62
2022/08/19 10:33:33;;;;;;;16.53;15.20;;;23.40;99.90;;;;;;4978424;28;20445;-62
2022/08/19 10:36:01;;;;;;;17.43;15.93;;;23.40;99.90;;;;;;4978055;28;20455;-62
2022/08/19 10:38:28;;;;;;;16.37;14.80;;;23.40;99.90;;;;;;4977754;28;20474;-62
2022/08/19 10:40:55;;;;;;;16.67;15.00;;;23.40;99.90;;;;;;4977744;28;20482;-62
2022/08/19 10:43:22;;;;;;;14.63;13.23;;;23.40;99.90;;;;;;4977707;28;20505;-62
2022/08/19 10:45:53;;;;;;;14.97;13.60;;;23.40;99.90;;;;;;4977666;28;20454;-62
2022/08/19 10:48:20;;;;;;;14.30;13.13;;;23.40;99.90;;;;;;4977768;28;20775;-62
2022/08/19 10:53:31;;;;;;;13.03;11.40;;;23.40;99.90;;;;;;4977248;28;20770;-63
2022/08/19 10:58:42;;;;;;;11.50;10.50;;;23.50;99.90;;;;;;4977354;28;20474;-63
2022/08/19 11:01:10;;;;;;;10.10;9.17;;;23.50;99.90;;;;;;4975850;28;20491;-63
2022/08/19 11:03:37;;;;;;;11.03;9.60;;;23.50;99.90;;;;;;4977043;28;20454;-63
2022/08/19 11:06:06;;;;;;;10.03;9.23;;;23.60;99.90;;;;;;4976916;28;20888;-63
2022/08/19 11:08:34;;;;;;;9.60;8.80;;;23.60;99.90;;;;;;4976912;28;20451;-63
2022/08/19 11:11:03;;;;;;;8.40;7.70;;;23.80;99.90;;;;;;4976681;28;20482;-63
2022/08/19 11:13:30;;;;;;;10.13;9.30;;;24.00;99.90;;;;;;4976814;28;20455;-63
2022/08/19 11:15:59;;;;;;;10.50;8.47;;;24.20;99.90;;;;;;4977138;28;20458;-62
2022/08/19 11:18:27;;;;;;;11.40;10.33;;;24.30;99.90;;;;;;4977055;28;21017;-68
2022/08/19 11:20:54;;;;;;;11.00;9.90;;;24.40;99.90;;;;;;4976604;28;20501;-65
2022/08/19 11:23:21;;;;;;;9.97;9.17;;;24.60;99.90;;;;;;4976476;28;20513;-65
2022/08/19 11:25:48;;;;;;;11.23;10.43;;;24.70;99.90;;;;;;4976520;28;20459;-65
2022/08/19 11:28:14;;;;;;;10.90;10.00;;;24.70;99.90;;;;;;4976593;28;20458;-65
2022/08/19 11:30:41;;;;;;;10.80;9.80;;;24.80;99.90;;;;;;4976473;28;20478;-65
2022/08/19 11:33:10;;;;;;;12.20;10.20;;;24.90;99.90;;;;;;4976301;28;20976;-65
2022/08/19 11:35:41;;;;;;;9.53;8.63;;;24.90;99.90;;;;;;4976714;28;20858;-66
2022/08/19 11:38:08;;;;;;;11.47;10.53;;;24.90;99.90;;;;;;4976515;28;20534;-65
2022/08/19 11:40:34;;;;;;;10.10;9.40;;;24.90;99.90;;;;;;4976349;28;20483;-65
2022/08/19 11:43:01;;;;;;;10.60;9.70;;;24.80;99.90;;;;;;4977014;28;20466;-65
2022/08/19 11:45:28;;;;;;;10.40;9.70;;;24.70;99.90;;;;;;4976588;28;20455;-64
2022/08/19 11:47:56;;;;;;;10.60;9.67;;;24.70;99.90;;;;;;4976510;28;20455;-65
2022/08/19 11:50:24;;;;;;;10.60;9.60;;;24.70;99.90;;;;;;4976214;28;20457;-64
2022/08/19 11:52:54;;;;;;;10.33;9.53;;;24.60;99.90;;;;;;4976202;28;20454;-64
2022/08/19 11:55:21;;;;;;;11.40;10.57;;;24.60;99.90;;;;;;4976340;28;20521;-64
2022/08/19 11:57:48;;;;;;;11.87;10.60;;;24.60;99.90;;;;;;4976266;28;20465;-65
2022/08/19 12:00:15;;;;;;;12.40;11.30;;;24.50;99.90;;;;;;4976273;28;20545;-64
2022/08/19 12:02:42;;;;;;;11.87;10.97;;;24.40;99.90;;;;;;4976182;28;20459;-64
2022/08/19 12:05:09;;;;;;;10.90;10.10;;;24.50;99.90;;;;;;4975917;28;20458;-64
2022/08/19 12:07:36;;;;;;;11.60;10.70;;;24.40;99.90;;;;;;4976043;28;20447;-64
2022/08/19 12:10:04;;;;;;;12.37;11.40;;;24.40;99.90;;;;;;4976617;28;20506;-64
2022/08/19 12:12:31;;;;;;;11.77;10.77;;;24.30;99.90;;;;;;4975717;28;20487;-64
2022/08/19 12:14:58;;;;;;;11.90;10.80;;;24.40;99.90;;;;;;4975943;28;20465;-64
2022/08/19 12:17:25;;;;;;;12.13;11.23;;;24.30;99.90;;;;;;4975897;28;20829;-65
2022/08/19 12:19:52;;;;;;;11.13;10.33;;;24.40;99.90;;;;;;4975854;28;20501;-66
2022/08/19 12:22:20;;;;;;;11.40;10.50;;;24.50;99.90;;;;;;4975662;28;20475;-65
2022/08/19 12:24:47;;;;;;;10.93;10.03;;;24.60;99.90;;;;;;4975665;28;20462;-65
2022/08/19 12:27:15;;;;;;;12.50;11.50;;;24.60;99.90;;;;;;4975566;28;20545;-65
2022/08/19 12:29:42;;;;;;;11.23;10.13;;;24.70;99.90;;;;;;4976011;28;20455;-66
2022/08/19 12:32:09;;;;;;;11.20;10.20;;;24.90;99.90;;;;;;4976209;28;20474;-65
2022/08/19 12:34:37;;;;;;;10.30;9.37;;;25.00;99.90;;;;;;4976017;28;20466;-64
2022/08/19 12:37:06;;;;;;;10.10;9.30;;;25.20;99.90;;;;;;4975428;28;20466;-65
2022/08/19 12:39:36;;;;;;;10.53;9.73;;;25.20;99.90;;;;;;4975699;28;20502;-65
2022/08/19 12:42:05;;;;;;;11.73;10.73;;;25.30;99.90;;;;;;4975612;28;20474;-65
2022/08/19 12:44:33;;;;;;;10.93;10.03;;;25.30;99.90;;;;;;4976050;28;20494;-65
2022/08/19 12:47:00;;;;;;;12.67;10.50;;;25.30;99.90;;;;;;4975307;28;20506;-65
2022/08/19 12:49:28;;;;;;;10.10;9.37;;;25.30;99.90;;;;;;4975979;28;20797;-65
2022/08/19 12:51:55;;;;;;;10.67;9.73;;;25.30;99.90;;;;;;4975323;28;20569;-65
2022/08/19 12:54:22;;;;;;;10.53;9.70;;;25.30;99.90;;;;;;4975381;28;20458;-65
2022/08/19 12:56:48;;;;;;;10.37;8.57;;;25.20;99.90;;;;;;4974935;28;20813;-65
2022/08/19 12:59:17;;;;;;;10.20;9.50;;;25.20;99.90;;;;;;4974951;28;20475;-65
2022/08/19 13:01:46;;;;;;;11.60;8.80;;;25.20;99.90;;;;;;4974868;28;20494;-65
2022/08/19 13:04:13;;;;;;;9.17;8.50;;;25.10;99.90;;;;;;4975178;28;20458;-65
2022/08/19 13:06:40;;;;;;;9.50;8.80;;;25.10;99.90;;;;;;4975298;28;20458;-65
2022/08/19 13:09:07;;;;;;;8.60;7.90;;;25.10;99.90;;;;;;4974798;28;20958;-65
2022/08/19 13:11:34;;;;;;;9.00;8.30;;;25.00;99.90;;;;;;4975332;28;20478;-65
2022/08/19 13:14:02;;;;;;;8.80;7.93;;;25.00;99.90;;;;;;4975101;28;20474;-64
2022/08/19 13:16:30;;;;;;;9.07;8.20;;;25.00;99.90;;;;;;4975666;28;20477;-64
2022/08/19 13:18:58;;;;;;;9.10;8.20;;;24.90;99.90;;;;;;4975180;28;20459;-64
2022/08/19 13:21:27;;;;;;;10.27;9.37;;;24.90;99.90;;;;;;4974623;28;21044;-64
2022/08/19 13:23:54;;;;;;;9.37;8.60;;;24.90;99.90;;;;;;4974780;28;20942;-63
2022/08/19 13:26:22;;;;;;;9.03;8.43;;;24.90;99.90;;;;;;4977848;28;20881;-63
2022/08/19 13:34:28;;;;;;;10.50;9.63;;;24.90;99.90;;;;;;4983142;28;20892;-63
2022/08/19 13:36:55;;;;;;;12.30;9.70;;;24.80;99.90;;;;;;4982709;28;20434;-63
2022/08/19 13:39:22;;;;;;;10.63;9.80;;;24.70;99.90;;;;;;4979285;28;20478;-64
2022/08/19 13:41:49;;;;;;;10.23;9.53;;;24.60;99.90;;;;;;4978901;28;20812;-64
2022/08/19 13:44:18;;;;;;;14.50;13.10;;;24.60;99.90;;;;;;4978655;28;20462;-64
2022/08/19 13:46:45;;;;;;;21.10;19.33;;;24.50;99.90;;;;;;4978644;28;20458;-64
2022/08/19 13:49:14;;;;;;;18.53;17.00;;;24.40;99.90;;;;;;4979042;28;20439;-63
2022/08/19 13:51:43;;;;;;;21.33;19.50;;;24.30;99.90;;;;;;4978499;28;20916;-62
2022/08/19 13:54:11;;;;;;;24.00;21.60;;;24.20;99.90;;;;;;4978335;28;20450;-62
2022/08/19 13:56:41;;;;;;;23.53;21.63;;;24.10;99.90;;;;;;4978323;28;20462;-61
2022/08/19 13:59:08;;;;;;;27.03;24.57;;;23.90;99.90;;;;;;4977936;28;20928;-62
2022/08/19 14:01:35;;;;;;;29.13;26.27;;;23.60;99.90;;;;;;4977852;28;20486;-62
2022/08/19 14:04:02;;;;;;;26.73;24.30;;;23.40;99.90;;;;;;4978196;28;20509;-62
2022/08/19 14:06:29;;;;;;;24.97;22.83;;;23.20;99.90;;;;;;4978114;28;20455;-62
2022/08/19 14:08:57;;;;;;;28.77;26.33;;;23.10;99.90;;;;;;4978162;28;20455;-63
2022/08/19 14:11:23;;;;;;;30.40;27.70;;;23.00;99.90;;;;;;4978741;28;20479;-63
2022/08/19 14:13:50;;;;;;;28.30;25.60;;;22.90;99.90;;;;;;4978237;28;20826;-63
2022/08/19 14:16:17;;;;;;;30.27;27.67;;;22.90;99.90;;;;;;4978063;28;20462;-63
2022/08/19 14:18:45;;;;;;;34.73;31.63;;;22.80;99.90;;;;;;4977585;28;20553;-63
2022/08/19 14:21:17;;;;;;;33.37;30.03;;;22.70;99.90;;;;;;4977614;28;20917;-63
2022/08/19 14:23:44;;;;;;;29.50;26.93;;;22.60;99.90;;;;;;4978207;28;20465;-63
2022/08/19 14:26:15;;;;;;;31.37;28.57;;;22.60;99.90;;;;;;4977424;28;20454;-63
2022/08/19 14:28:43;;;;;;;31.77;28.93;;;22.60;99.90;;;;;;4977684;28;20443;-63
2022/08/19 14:31:10;;;;;;;31.83;28.63;;;22.60;99.90;;;;;;4977330;28;21097;-63
2022/08/19 14:33:37;;;;;;;32.83;29.80;;;22.60;99.90;;;;;;4977684;28;20454;-64
2022/08/19 14:36:04;;;;;;;32.30;29.47;;;22.60;99.90;;;;;;4977407;28;20494;-64
2022/08/19 14:38:31;;;;;;;33.47;30.40;;;22.60;99.90;;;;;;4977639;28;20455;-64
2022/08/19 14:41:08;;;;;;;33.20;30.10;;;22.50;99.90;;;;;;4977268;28;20913;-63
2022/08/19 14:43:36;;;;;;;35.70;32.10;;;22.50;99.90;;;;;;4977698;28;20442;-63
2022/08/19 14:46:03;;;;;;;35.53;32.13;;;22.40;99.90;;;;;;4977150;28;20458;-62
2022/08/19 14:48:30;;;;;;;35.60;32.40;;;22.40;99.90;;;;;;4977396;28;20454;-62
2022/08/19 14:50:57;;;;;;;40.83;33.60;;;22.40;99.90;;;;;;4977172;28;21013;-63
2022/08/19 14:53:24;;;;;;;36.60;33.20;;;22.40;99.90;;;;;;4977339;28;20455;-62
2022/08/19 14:55:51;;;;;;;35.33;32.07;;;22.40;99.90;;;;;;4977417;28;20462;-62
2022/08/19 14:58:17;;;;;;;35.80;32.40;;;22.40;99.90;;;;;;4977335;28;20477;-62
2022/08/19 15:00:45;;;;;;;38.93;35.43;;;22.40;99.90;;;;;;4976766;28;20489;-63
2022/08/19 15:03:13;;;;;;;37.20;33.70;;;22.40;99.90;;;;;;4976892;28;20919;-62
2022/08/19 15:05:39;;;;;;;39.27;35.40;;;22.40;99.90;;;;;;4977026;28;20549;-62
2022/08/19 15:08:06;;;;;;;38.23;34.63;;;22.40;99.90;;;;;;4976803;28;20513;-62
2022/08/19 15:10:33;;;;;;;35.57;32.33;;;22.40;99.90;;;;;;4977154;28;20458;-62
2022/08/19 15:13:00;;;;;;;38.17;34.67;;;22.40;99.90;;;;;;4977051;28;20819;-62
2022/08/19 15:15:27;;;;;;;37.10;33.50;;;22.40;99.90;;;;;;4977058;28;20820;-62
2022/08/19 15:18:01;;;;;;;35.17;31.87;;;22.40;99.90;;;;;;4976936;28;20512;-62
2022/08/19 15:20:29;;;;;;;36.40;33.07;;;22.40;99.90;;;;;;4976950;28;20552;-62
2022/08/19 15:22:55;;;;;;;34.50;31.20;;;22.40;99.90;;;;;;4976745;28;20462;-62
2022/08/19 15:25:22;;;;;;;34.63;31.53;;;22.40;99.90;;;;;;4976684;28;20506;-62
2022/08/19 15:27:49;;;;;;;32.53;29.53;;;22.50;99.90;;;;;;4976346;28;20969;-65
2022/08/19 15:30:21;;;;;;;30.83;28.10;;;22.60;99.90;;;;;;4976651;28;20454;-64
2022/08/19 15:32:48;;;;;;;31.83;28.93;;;22.70;99.90;;;;;;4976690;28;20498;-62
2022/08/19 15:35:18;;;;;;;31.60;28.90;;;22.70;99.90;;;;;;4976423;28;20459;-62
2022/08/19 15:37:45;;;;;;;33.20;30.30;;;22.60;99.90;;;;;;4977880;28;20545;-63
2022/08/19 15:40:12;;;;;;;30.90;28.17;;;22.70;99.90;;;;;;4976988;28;20529;-63
2022/08/19 15:42:41;;;;;;;31.10;28.57;;;22.70;99.90;;;;;;4976129;28;20512;-68
2022/08/19 15:45:08;;;;;;;31.57;28.87;;;22.60;99.90;;;;;;4976276;28;20459;-69
2022/08/19 15:47:36;;;;;;;30.83;28.07;;;22.60;99.90;;;;;;4976073;28;20462;-66
2022/08/19 15:50:06;;;;;;;27.87;25.57;;;22.70;99.90;;;;;;4976233;28;20451;-66
2022/08/19 15:52:34;;;;;;;31.57;28.87;;;22.80;99.90;;;;;;4976074;28;20624;-66
2022/08/19 15:55:01;;;;;;;31.77;28.87;;;22.80;99.90;;;;;;4976378;28;20462;-68
2022/08/19 16:08:27;;;;;;;28.40;26.00;;;22.80;99.90;;;;;;4976517;28;20957;-63
2022/08/19 16:10:54;;;;;;;28.47;25.80;;;22.90;99.90;;;;;;4977631;28;20475;-63
2022/08/19 16:13:22;;;;;;;28.70;26.00;;;22.90;99.90;;;;;;4975797;28;21013;-63
2022/08/19 16:15:49;;;;;;;29.93;27.27;;;23.00;99.90;;;;;;4976061;28;20455;-63
2022/08/19 16:18:16;;;;;;;28.73;26.27;;;23.10;99.90;;;;;;4976171;28;20505;-62
2022/08/19 16:20:45;;;;;;;28.97;26.47;;;23.10;99.90;;;;;;4976424;28;20493;-66
2022/08/19 16:23:12;;;;;;;28.07;25.13;;;23.00;99.90;;;;;;4976019;28;20494;-68
2022/08/19 16:25:40;;;;;;;25.30;23.30;;;23.00;99.90;;;;;;4975771;28;20454;-67
2022/08/19 16:28:09;;;;;;;24.90;22.80;;;23.00;99.90;;;;;;4975832;28;20458;-69
2022/08/19 16:30:37;;;;;;;26.83;24.63;;;23.00;99.90;;;;;;4975856;28;20497;-65
2022/08/19 16:33:04;;;;;;;28.80;26.10;;;23.00;99.90;;;;;;4975331;28;20455;-67
2022/08/19 16:35:31;;;;;;;24.70;22.70;;;23.00;99.90;;;;;;4975549;28;20454;-67
2022/08/19 16:37:58;;;;;;;25.40;23.30;;;23.00;99.90;;;;;;4976048;28;20468;-63
2022/08/19 16:40:24;;;;;;;27.20;24.70;;;22.90;99.90;;;;;;4976709;28;20482;-64
2022/08/19 16:42:52;;;;;;;28.70;26.33;;;22.90;99.90;;;;;;4977224;28;20458;-64
2022/08/19 16:45:20;;;;;;;27.43;25.23;;;22.80;99.90;;;;;;4977917;28;20903;-66
2022/08/19 16:47:47;;;;;;;28.80;26.13;;;22.70;99.90;;;;;;4977053;28;20447;-66
2022/08/19 16:50:14;;;;;;;27.60;25.30;;;22.60;99.90;;;;;;4975374;28;20435;-65
2022/08/19 16:52:41;;;;;;;28.37;26.03;;;22.50;99.90;;;;;;4975792;28;20485;-66
2022/08/19 16:55:08;;;;;;;27.60;25.30;;;22.50;99.90;;;;;;4975294;28;20435;-66
2022/08/19 16:57:36;;;;;;;27.10;24.97;;;22.50;99.90;;;;;;4975384;28;20985;-66
2022/08/19 17:00:08;;;;;;;26.03;23.87;;;22.50;99.90;;;;;;4975714;28;20449;-64
2022/08/19 17:02:35;;;;;;;27.80;25.50;;;22.50;99.90;;;;;;4974756;28;21045;-63
2022/08/19 17:05:02;;;;;;;28.23;26.00;;;22.50;99.90;;;;;;4975331;28;20462;-65
2022/08/19 17:07:31;;;;;;;28.30;25.70;;;22.50;99.90;;;;;;4975096;28;20517;-66
2022/08/19 17:09:58;;;;;;;29.17;26.70;;;22.50;99.90;;;;;;4975162;28;20465;-66
2022/08/19 17:12:26;;;;;;;29.43;26.70;;;22.40;99.90;;;;;;4974980;28;20482;-67